createdAt,value
2017-08-01T00:00:22.996Z,43.67
2017-08-01T00:02:50.509Z,43.53
2017-08-01T00:05:18.022Z,43.61
2017-08-01T00:07:45.625Z,43.76
2017-08-01T00:10:13.214Z,43.75
2017-08-01T00:12:40.719Z,43.56
2017-08-01T00:15:08.333Z,43.58
2017-08-01T00:17:35.830Z,43.52
2017-08-01T00:20:10.976Z,43.60
2017-08-01T00:22:38.510Z,43.56
2017-08-01T00:25:06.024Z,43.64
2017-08-01T00:27:33.569Z,43.57
2017-08-01T00:30:01.097Z,43.60
2017-08-01T00:32:28.602Z,43.56
2017-08-01T00:34:56.156Z,43.46
2017-08-01T00:37:23.664Z,43.52
2017-08-01T00:39:58.863Z,43.59
2017-08-01T00:42:26.369Z,43.56
2017-08-01T00:44:53.877Z,43.60
2017-08-01T00:47:21.417Z,43.61
2017-08-01T00:59:57.010Z,43.70
2017-08-01T01:02:24.510Z,43.62
2017-08-01T01:04:52.014Z,44.43
2017-08-01T01:07:19.578Z,44.85
2017-08-01T01:19:55.425Z,45.08
2017-08-01T01:22:22.967Z,45.03
2017-08-01T01:24:50.526Z,45.11
2017-08-01T01:27:18.027Z,45.02
2017-08-01T01:29:45.542Z,45.36
2017-08-01T01:32:13.078Z,45.74
2017-08-01T01:34:40.581Z,45.63
2017-08-01T01:37:08.132Z,45.76
2017-08-01T01:39:43.462Z,45.86
2017-08-01T01:42:11.029Z,45.84
2017-08-01T01:44:38.557Z,45.91
2017-08-01T01:47:06.052Z,45.94
2017-08-01T01:49:33.594Z,45.30
2017-08-01T01:52:01.093Z,45.16
2017-08-01T01:54:28.626Z,45.47
2017-08-01T01:56:56.138Z,45.43
2017-08-01T01:59:30.603Z,45.21
2017-08-01T02:01:58.100Z,45.15
2017-08-01T02:04:25.598Z,45.28
2017-08-01T02:06:53.144Z,45.33
2017-08-01T02:19:28.462Z,45.14
2017-08-01T02:21:56.000Z,45.00
2017-08-01T02:24:23.549Z,45.08
2017-08-01T02:26:51.067Z,44.98
2017-08-01T02:29:18.564Z,44.84
2017-08-01T02:31:46.115Z,45.02
2017-08-01T02:34:13.673Z,45.17
2017-08-01T02:36:41.174Z,45.35
2017-08-01T02:39:15.905Z,45.13
2017-08-01T02:41:43.409Z,45.01
2017-08-01T02:44:10.917Z,45.20
2017-08-01T02:46:38.466Z,45.17
2017-08-01T02:49:05.979Z,45.43
2017-08-01T02:51:33.478Z,45.65
2017-08-01T02:54:01.015Z,45.67
2017-08-01T02:56:28.551Z,45.44
2017-08-01T02:59:03.162Z,45.22
2017-08-01T03:01:30.705Z,45.59
2017-08-01T03:03:58.205Z,45.70
2017-08-01T03:06:25.749Z,45.76
2017-08-01T03:08:53.285Z,45.45
2017-08-01T03:11:20.782Z,45.56
2017-08-01T03:13:48.335Z,45.61
2017-08-01T03:16:15.840Z,45.50
2017-08-01T03:18:43.382Z,45.25
2017-08-01T03:21:10.946Z,45.27
2017-08-01T03:23:38.452Z,45.09
2017-08-01T03:26:05.957Z,45.20
2017-08-01T03:28:40.782Z,45.10
2017-08-01T03:31:08.326Z,45.31
2017-08-01T03:33:35.870Z,45.15
2017-08-01T03:36:03.446Z,45.13
2017-08-01T03:38:30.937Z,45.10
2017-08-01T03:40:58.466Z,45.11
2017-08-01T03:43:25.992Z,45.00
2017-08-01T03:45:53.521Z,44.80
2017-08-01T03:48:21.124Z,44.77
2017-08-01T03:50:48.684Z,44.73
2017-08-01T03:53:16.176Z,44.56
2017-08-01T03:55:43.679Z,44.45
2017-08-01T03:58:11.224Z,44.35
2017-08-01T04:00:38.877Z,44.05
2017-08-01T04:03:06.445Z,43.97
2017-08-01T04:05:34.005Z,43.76
2017-08-01T04:08:01.526Z,43.50
2017-08-01T04:10:29.106Z,43.50
2017-08-01T04:12:56.692Z,43.46
2017-08-01T04:15:24.226Z,43.32
2017-08-01T04:17:51.748Z,43.27
2017-08-01T04:20:19.321Z,43.13
2017-08-01T04:22:46.828Z,43.10
2017-08-01T04:25:14.408Z,43.06
2017-08-01T04:27:42.000Z,43.04
2017-08-01T04:30:09.721Z,42.93
2017-08-01T04:32:37.236Z,42.81
2017-08-01T04:35:04.808Z,42.74
2017-08-01T04:37:32.340Z,42.72
2017-08-01T04:39:59.900Z,42.69
2017-08-01T04:42:27.462Z,42.63
2017-08-01T04:44:54.966Z,42.67
2017-08-01T04:47:22.611Z,42.65
2017-08-01T04:49:50.141Z,42.66
2017-08-01T04:52:17.697Z,42.62
2017-08-01T04:54:45.267Z,42.65
2017-08-01T04:57:12.933Z,42.61
2017-08-01T04:59:40.665Z,42.45
2017-08-01T05:02:08.342Z,42.54
2017-08-01T05:04:35.990Z,42.49
2017-08-01T05:07:03.549Z,42.42
2017-08-01T05:09:31.109Z,42.42
2017-08-01T05:11:58.687Z,42.31
2017-08-01T05:14:26.237Z,42.34
2017-08-01T05:16:53.793Z,42.32
2017-08-01T05:19:21.306Z,42.19
2017-08-01T05:21:48.918Z,42.17
2017-08-01T05:24:16.427Z,42.07
2017-08-01T05:26:44.574Z,42.12
2017-08-01T05:29:12.187Z,42.14
2017-08-01T05:31:40.103Z,42.19
2017-08-01T05:34:08.288Z,42.17
2017-08-01T05:36:35.818Z,42.09
2017-08-01T05:39:03.657Z,42.03
2017-08-01T05:41:31.240Z,42.10
2017-08-01T05:43:59.121Z,41.99
2017-08-01T05:46:27.106Z,41.92
2017-08-01T05:49:27.025Z,41.82
2017-08-01T05:51:55.991Z,42.04
2017-08-01T05:54:24.595Z,42.02
2017-08-01T05:56:53.038Z,42.07
2017-08-01T06:29:05.040Z,42.01
2017-08-01T06:31:49.016Z,42.06
2017-08-01T06:34:25.150Z,42.20
2017-08-01T06:37:22.043Z,42.07
2017-08-01T06:39:53.898Z,42.00
2017-08-01T06:42:37.648Z,41.92
2017-08-01T06:45:12.346Z,42.05
2017-08-01T06:47:40.739Z,42.10
2017-08-01T06:50:18.977Z,42.12
2017-08-01T06:52:51.948Z,42.06
2017-08-01T06:55:30.755Z,42.05
2017-08-01T06:58:06.131Z,42.22
2017-08-01T08:29:21.174Z,41.03
2017-08-01T08:54:55.598Z,40.86
2017-08-01T08:57:30.748Z,40.87
2017-08-01T09:00:39.577Z,41.02
2017-08-01T09:03:10.347Z,40.98
2017-08-01T09:08:52.161Z,41.00
2017-08-01T09:11:26.146Z,41.00
2017-08-01T09:14:00.300Z,40.91
2017-08-01T09:50:06.992Z,40.84
2017-08-01T11:19:16.955Z,39.71
2017-08-01T11:21:53.211Z,39.58
2017-08-01T11:24:37.392Z,39.65
2017-08-01T11:27:21.783Z,39.55
2017-08-01T11:34:04.046Z,39.53
2017-08-01T12:03:58.182Z,39.69
2017-08-01T12:13:00.520Z,39.93
2017-08-01T12:16:01.926Z,40.21
2017-08-01T12:22:17.042Z,40.09
2017-08-01T12:25:11.068Z,40.10
2017-08-01T12:27:57.970Z,40.13
2017-08-01T13:02:04.171Z,40.79
2017-08-01T13:04:59.348Z,40.50
2017-08-01T13:23:48.252Z,40.58
2017-08-01T13:26:15.982Z,40.64
2017-08-01T13:28:43.800Z,40.59
2017-08-01T13:31:13.189Z,40.50
2017-08-01T13:33:46.806Z,40.36
2017-08-01T13:36:23.524Z,40.40
2017-08-01T13:38:52.900Z,40.47
2017-08-01T13:41:20.454Z,40.49
2017-08-01T13:43:48.171Z,40.35
2017-08-01T13:46:15.722Z,40.25
2017-08-01T13:48:43.364Z,40.33
2017-08-01T13:51:11.400Z,40.51
2017-08-01T13:53:39.233Z,40.43
2017-08-01T13:56:06.807Z,40.51
2017-08-01T13:58:34.448Z,40.52
2017-08-01T14:01:02.151Z,40.52
2017-08-01T14:03:29.829Z,40.37
2017-08-01T14:05:57.564Z,40.45
2017-08-01T14:08:26.731Z,40.40
2017-08-01T14:10:54.453Z,40.43
2017-08-01T14:13:21.986Z,40.74
2017-08-01T14:15:49.627Z,40.86
2017-08-01T14:18:18.208Z,40.71
2017-08-01T14:20:45.930Z,40.75
2017-08-01T14:23:13.643Z,40.83
2017-08-01T14:25:41.415Z,40.55
2017-08-01T14:28:09.079Z,40.50
2017-08-01T14:30:36.724Z,40.50
2017-08-01T14:33:04.267Z,40.27
2017-08-01T14:35:31.844Z,40.39
2017-08-01T14:37:59.425Z,40.22
2017-08-01T14:40:34.197Z,40.15
2017-08-01T14:43:01.804Z,40.13
2017-08-01T14:45:29.362Z,40.22
2017-08-01T14:47:56.957Z,40.31
2017-08-01T14:50:24.585Z,40.15
2017-08-01T14:52:52.186Z,40.31
2017-08-01T14:55:19.774Z,40.15
2017-08-01T14:57:47.347Z,40.03
2017-08-01T15:00:14.929Z,40.19
2017-08-01T15:02:42.502Z,40.01
2017-08-01T15:05:10.108Z,40.04
2017-08-01T15:07:37.664Z,39.93
2017-08-01T15:10:13.528Z,40.16
2017-08-01T15:12:42.273Z,39.86
2017-08-01T15:15:11.675Z,39.91
2017-08-01T15:17:39.324Z,39.94
2017-08-01T15:20:07.033Z,39.92
2017-08-01T15:22:34.632Z,39.88
2017-08-01T15:25:02.255Z,39.71
2017-08-01T15:27:29.765Z,39.79
2017-08-01T15:29:57.270Z,39.77
2017-08-01T15:32:24.823Z,39.91
2017-08-01T15:34:52.405Z,39.70
2017-08-01T15:37:19.946Z,39.69
2017-08-01T15:39:54.631Z,39.76
2017-08-01T15:42:22.194Z,39.77
2017-08-01T15:44:49.718Z,39.51
2017-08-01T15:47:17.558Z,39.58
2017-08-01T15:59:54.065Z,39.29
2017-08-01T16:02:21.626Z,39.38
2017-08-01T16:04:49.137Z,39.46
2017-08-01T16:07:16.650Z,39.40
2017-08-01T16:19:54.269Z,39.32
2017-08-01T16:22:21.806Z,39.22
2017-08-01T16:24:49.309Z,39.26
2017-08-01T16:27:16.818Z,39.18
2017-08-01T16:29:44.391Z,39.07
2017-08-01T16:32:11.897Z,39.10
2017-08-01T16:34:39.417Z,39.11
2017-08-01T16:37:07.044Z,39.04
2017-08-01T16:39:42.329Z,38.96
2017-08-01T16:42:09.870Z,38.99
2017-08-01T16:44:37.406Z,38.97
2017-08-01T16:47:04.905Z,38.97
2017-08-01T16:49:32.461Z,39.12
2017-08-01T16:51:59.965Z,39.08
2017-08-01T16:54:27.469Z,39.05
2017-08-01T16:56:55.041Z,39.03
2017-08-01T16:59:22.588Z,38.84
2017-08-01T17:18:59.893Z,38.46
2017-08-01T17:21:27.435Z,38.34
2017-08-01T17:23:54.987Z,38.29
2017-08-01T17:26:22.526Z,38.25
2017-08-01T17:28:50.034Z,38.17
2017-08-01T17:31:17.574Z,38.15
2017-08-01T17:33:45.069Z,38.24
2017-08-01T17:36:12.654Z,38.21
2017-08-01T17:38:40.265Z,38.08
2017-08-01T17:41:07.769Z,38.00
2017-08-01T17:43:35.318Z,37.90
2017-08-01T17:46:02.873Z,38.07
2017-08-01T17:48:30.374Z,38.08
2017-08-01T17:50:57.930Z,37.81
2017-08-01T17:53:25.461Z,38.00
2017-08-01T17:55:52.971Z,37.71
2017-08-01T17:58:20.521Z,37.70
2017-08-01T18:00:48.065Z,37.61
2017-08-01T18:03:15.568Z,37.59
2017-08-01T18:05:43.062Z,37.61
2017-08-01T18:08:10.733Z,37.70
2017-08-01T18:10:38.289Z,37.76
2017-08-01T18:13:05.808Z,37.69
2017-08-01T18:15:33.382Z,37.91
2017-08-01T18:18:00.901Z,37.71
2017-08-01T18:20:28.433Z,37.74
2017-08-01T18:22:55.989Z,37.74
2017-08-01T18:25:23.614Z,37.61
2017-08-01T18:27:51.125Z,37.82
2017-08-01T18:30:18.679Z,37.69
2017-08-01T18:32:46.292Z,37.79
2017-08-01T18:35:14.074Z,37.71
2017-08-01T18:37:41.788Z,37.81
2017-08-01T18:40:09.324Z,37.68
2017-08-01T18:42:36.926Z,37.90
2017-08-01T18:45:04.459Z,38.08
2017-08-01T18:47:31.963Z,38.40
2017-08-01T18:49:59.530Z,38.23
2017-08-01T18:52:27.042Z,38.25
2017-08-01T18:54:54.615Z,38.25
2017-08-01T18:57:22.175Z,38.28
2017-08-01T18:59:49.763Z,38.27
2017-08-01T19:02:17.305Z,38.40
2017-08-01T19:04:44.919Z,38.48
2017-08-01T19:07:12.493Z,38.61
2017-08-01T19:09:40.098Z,38.77
2017-08-01T19:12:07.886Z,38.89
2017-08-01T19:14:35.418Z,39.05
2017-08-01T19:17:05.922Z,39.12
2017-08-01T19:19:33.460Z,39.27
2017-08-01T19:22:00.967Z,39.32
2017-08-01T19:24:28.511Z,39.40
2017-08-01T19:26:56.037Z,39.46
2017-08-01T19:29:23.625Z,39.51
2017-08-01T19:31:51.141Z,39.56
2017-08-01T19:34:18.706Z,39.65
2017-08-01T19:36:46.279Z,39.75
2017-08-01T19:39:13.817Z,39.68
2017-08-01T19:41:41.409Z,39.82
2017-08-01T19:44:08.918Z,39.80
2017-08-01T19:46:36.413Z,39.73
2017-08-01T19:49:03.969Z,39.75
2017-08-01T19:51:31.479Z,39.84
2017-08-01T19:53:59.026Z,39.92
2017-08-01T19:56:26.574Z,39.92
2017-08-01T19:58:54.098Z,39.95
2017-08-01T20:01:21.667Z,39.89
2017-08-01T20:03:49.218Z,40.06
2017-08-01T20:06:16.718Z,40.11
2017-08-01T20:08:44.261Z,40.09
2017-08-01T20:11:11.816Z,40.23
2017-08-01T20:13:39.309Z,40.21
2017-08-01T20:16:06.874Z,40.44
2017-08-01T20:18:34.383Z,40.56
2017-08-01T20:21:01.902Z,40.43
2017-08-01T20:23:29.457Z,40.43
2017-08-01T20:25:56.972Z,40.50
2017-08-01T20:28:24.514Z,40.44
2017-08-01T20:30:52.017Z,40.49
2017-08-01T20:33:19.597Z,40.51
2017-08-01T20:35:47.107Z,40.61
2017-08-01T20:38:14.720Z,40.62
2017-08-01T20:40:42.304Z,40.47
2017-08-01T20:43:09.809Z,40.62
2017-08-01T20:45:37.440Z,40.57
2017-08-01T20:48:04.949Z,40.64
2017-08-01T20:50:32.474Z,40.68
2017-08-01T20:53:00.006Z,40.78
2017-08-01T20:55:27.645Z,40.71
2017-08-01T20:57:55.193Z,40.79
2017-08-01T21:00:22.702Z,40.86
2017-08-01T21:02:50.261Z,41.00
2017-08-01T21:05:17.759Z,40.99
2017-08-01T21:07:45.263Z,40.95
2017-08-01T21:10:12.858Z,40.98
2017-08-01T21:12:40.368Z,41.27
2017-08-01T21:15:07.929Z,41.37
2017-08-01T21:17:35.438Z,41.29
2017-08-01T21:20:02.995Z,41.40
2017-08-01T21:22:30.534Z,41.53
2017-08-01T21:24:58.130Z,41.61
2017-08-01T21:27:25.628Z,41.66
2017-08-01T21:29:53.154Z,41.55
2017-08-01T21:32:20.750Z,41.72
2017-08-01T21:34:48.272Z,41.71
2017-08-01T21:37:15.773Z,41.61
2017-08-01T21:39:43.349Z,41.59
2017-08-01T21:42:10.904Z,41.98
2017-08-01T21:44:38.434Z,41.82
2017-08-01T21:47:05.988Z,41.76
2017-08-01T21:49:33.485Z,41.65
2017-08-01T21:52:00.988Z,41.59
2017-08-01T21:54:28.522Z,41.45
2017-08-01T21:56:56.057Z,41.48
2017-08-01T21:59:23.597Z,41.42
2017-08-01T22:01:51.111Z,41.67
2017-08-01T22:04:18.669Z,41.88
2017-08-01T22:06:56.447Z,42.03
2017-08-01T22:09:24.653Z,41.94
2017-08-01T22:11:52.221Z,41.83
2017-08-01T22:14:19.803Z,41.88
2017-08-01T22:16:47.333Z,42.04
2017-08-01T22:19:15.016Z,42.21
2017-08-01T22:21:42.625Z,42.10
2017-08-01T22:24:10.298Z,42.04
2017-08-01T22:26:37.869Z,41.87
2017-08-01T22:29:05.584Z,41.94
2017-08-01T22:31:33.239Z,42.04
2017-08-01T22:34:00.824Z,42.05
2017-08-01T22:36:28.475Z,42.06
2017-08-01T22:38:56.005Z,42.24
2017-08-01T22:41:23.570Z,42.21
2017-08-01T22:43:51.076Z,42.11
2017-08-01T22:46:18.640Z,42.47
2017-08-01T22:48:46.159Z,42.21
2017-08-01T22:51:14.129Z,42.32
2017-08-01T22:53:41.805Z,42.08
2017-08-01T22:56:20.109Z,42.11
2017-08-01T22:58:47.649Z,42.21
2017-08-01T23:01:15.231Z,42.22
2017-08-01T23:03:42.734Z,42.34
2017-08-01T23:06:10.277Z,42.26
2017-08-01T23:08:37.817Z,42.25
2017-08-01T23:11:05.334Z,42.08
2017-08-01T23:13:32.875Z,42.19
2017-08-01T23:16:00.442Z,42.15
2017-08-01T23:18:27.975Z,42.23
2017-08-01T23:20:55.477Z,42.34
2017-08-01T23:23:23.013Z,42.35
2017-08-01T23:25:50.564Z,42.63
2017-08-01T23:28:18.078Z,42.41
2017-08-01T23:30:45.617Z,42.43
2017-08-01T23:33:13.117Z,42.44
2017-08-01T23:35:40.674Z,42.31
2017-08-01T23:38:08.301Z,42.27
2017-08-01T23:40:35.798Z,42.26
2017-08-01T23:43:03.424Z,42.33
2017-08-01T23:45:30.965Z,42.28
2017-08-01T23:47:58.477Z,42.20
2017-08-01T23:50:26.009Z,42.25
2017-08-01T23:52:53.564Z,42.31
2017-08-01T23:55:21.131Z,42.44
2017-08-01T23:57:48.628Z,42.53
